Time;durP1;ratioP1;P1;durP2;ratioP2;P2;SDS_P1;SDS_P2;PMS_P1;PMS_P2;Temp;Humidity;BMP_temperature;BMP_pressure;BME280_temperature;BME280_humidity;BME280_pressure;Samples;Min_cycle;Max_cycle;Signal;HPM_P1;HPM_P2
2022/03/18 00:02:15;;;;;;;0.30;0.30;;;10.70;99.90;;;;;;5017935;28;20447;-75
2022/03/18 00:04:41;;;;;;;0.10;0.10;;;10.80;99.90;;;;;;5017855;28;20104;-75
2022/03/18 00:07:07;;;;;;;0.10;0.10;;;10.70;99.90;;;;;;5017895;28;20033;-75
2022/03/18 00:09:33;;;;;;;0.32;0.32;;;10.70;99.90;;;;;;5017799;28;20034;-75
2022/03/18 00:11:59;;;;;;;0.40;0.40;;;10.70;99.90;;;;;;5017537;28;20046;-75
2022/03/18 00:14:25;;;;;;;0.17;0.17;;;10.70;99.90;;;;;;5017690;28;20042;-75
2022/03/18 00:16:51;;;;;;;0.45;0.45;;;10.70;99.90;;;;;;5017296;28;20096;-75
2022/03/18 00:19:17;;;;;;;0.13;0.13;;;10.70;99.90;;;;;;5016454;28;20041;-75
2022/03/18 00:21:43;;;;;;;0.30;0.30;;;10.70;99.90;;;;;;5017284;28;20042;-75
2022/03/18 00:24:09;;;;;;;0.10;0.10;;;10.70;99.90;;;;;;5017618;28;20048;-75
2022/03/18 00:26:36;;;;;;;0.20;0.20;;;10.70;99.90;;;;;;5017555;28;20049;-75
2022/03/18 00:29:02;;;;;;;0.15;0.15;;;10.70;99.90;;;;;;5017644;28;20034;-75
2022/03/18 00:31:30;;;;;;;0.20;0.20;;;10.70;99.90;;;;;;5017090;28;20068;-75
2022/03/18 00:33:55;;;;;;;0.20;0.20;;;10.70;99.90;;;;;;5017275;28;20038;-75
2022/03/18 00:36:21;;;;;;;0.30;0.30;;;10.70;99.90;;;;;;5017591;28;20048;-75
2022/03/18 00:38:47;;;;;;;0.35;0.22;;;10.70;99.90;;;;;;5017499;28;20033;-75
2022/03/18 00:41:13;;;;;;;0.30;0.30;;;10.70;99.90;;;;;;5017447;28;20046;-74
2022/03/18 00:43:39;;;;;;;0.52;0.28;;;10.80;99.90;;;;;;5017222;28;20034;-75
2022/03/18 00:46:06;;;;;;;0.40;0.40;;;10.80;99.90;;;;;;5017289;28;20046;-75
2022/03/18 00:54:00;;;;;;;0.10;0.10;;;10.70;99.90;;;;;;5016711;28;20408;-75
2022/03/18 00:56:26;;;;;;;0.10;0.10;;;10.70;99.90;;;;;;5016758;28;20042;-75
2022/03/18 00:58:52;;;;;;;0.10;0.10;;;10.70;99.90;;;;;;5016768;28;20111;-75
2022/03/18 01:01:18;;;;;;;0.20;0.20;;;10.70;99.90;;;;;;5016625;28;20046;-75
2022/03/18 01:03:43;;;;;;;0.50;0.32;;;10.70;99.90;;;;;;5016488;28;20042;-75
2022/03/18 01:06:09;;;;;;;0.40;0.40;;;10.70;99.90;;;;;;5016441;28;20042;-75
2022/03/18 01:08:35;;;;;;;0.45;0.45;;;10.70;99.90;;;;;;5016692;28;20389;-75
2022/03/18 01:11:03;;;;;;;0.55;0.55;;;10.70;99.90;;;;;;5016354;28;20125;-75
2022/03/18 01:13:29;;;;;;;0.43;0.43;;;10.70;99.90;;;;;;5016381;28;20105;-75
2022/03/18 01:15:54;;;;;;;0.10;0.10;;;10.60;99.90;;;;;;5015814;28;20136;-75
2022/03/18 01:18:20;;;;;;;0.20;0.20;;;10.60;99.90;;;;;;5016257;28;20030;-76
2022/03/18 01:20:46;;;;;;;0.20;0.20;;;10.70;99.90;;;;;;5015806;28;20041;-75
2022/03/18 01:23:13;;;;;;;3.30;0.82;;;10.70;99.90;;;;;;5015923;28;20030;-76
2022/03/18 01:25:39;;;;;;;0.10;0.10;;;10.60;99.90;;;;;;5016125;28;20041;-75
2022/03/18 01:28:06;;;;;;;0.25;0.25;;;10.70;99.90;;;;;;5016090;28;20133;-75
2022/03/18 01:30:32;;;;;;;0.40;0.40;;;10.80;99.90;;;;;;5015668;28;20042;-75
2022/03/18 01:33:02;;;;;;;0.20;0.20;;;10.80;99.90;;;;;;5015926;28;20030;-75
2022/03/18 01:35:28;;;;;;;2.72;1.75;;;10.80;99.90;;;;;;5015533;28;20095;-75
2022/03/18 01:37:54;;;;;;;0.20;0.20;;;10.70;99.90;;;;;;5015849;28;20664;-75
2022/03/18 01:40:20;;;;;;;0.25;0.25;;;10.70;99.90;;;;;;5015740;28;20042;-75
2022/03/18 01:42:46;;;;;;;0.50;0.47;;;10.70;99.90;;;;;;5016021;28;20052;-75
2022/03/18 01:45:12;;;;;;;0.32;0.32;;;10.80;99.90;;;;;;5015604;28;20077;-75
2022/03/18 01:47:42;;;;;;;0.20;0.20;;;10.70;99.90;;;;;;5015473;28;20563;-75
2022/03/18 01:50:13;;;;;;;0.65;0.65;;;10.80;99.90;;;;;;5015416;28;20052;-75
2022/03/18 01:52:39;;;;;;;0.15;0.15;;;10.80;99.90;;;;;;5016203;28;20056;-75
2022/03/18 01:55:06;;;;;;;0.43;0.43;;;10.80;99.90;;;;;;5015230;28;20049;-75
2022/03/18 01:57:32;;;;;;;0.10;0.10;;;10.90;99.90;;;;;;5015539;28;20034;-75
2022/03/18 01:59:58;;;;;;;0.43;0.43;;;10.90;99.90;;;;;;5015704;28;20042;-75
2022/03/18 02:02:24;;;;;;;0.10;0.10;;;10.80;99.90;;;;;;5016283;28;20116;-75
2022/03/18 02:04:51;;;;;;;0.88;0.17;;;10.80;99.90;;;;;;5015956;28;20048;-75
2022/03/18 02:07:17;;;;;;;0.43;0.43;;;10.80;99.90;;;;;;5015380;28;20088;-76
2022/03/18 02:09:44;;;;;;;0.28;0.28;;;10.70;99.90;;;;;;5015766;28;20076;-75
2022/03/18 02:12:11;;;;;;;0.57;0.57;;;10.80;99.90;;;;;;5015679;28;20245;-75
2022/03/18 02:14:40;;;;;;;0.20;0.20;;;10.70;99.90;;;;;;5015182;28;20049;-75
2022/03/18 02:17:08;;;;;;;0.10;0.10;;;10.70;99.90;;;;;;5015348;28;20040;-75
2022/03/18 02:19:36;;;;;;;0.22;0.22;;;10.80;99.90;;;;;;5015187;28;20564;-75
2022/03/18 02:22:05;;;;;;;0.40;0.40;;;10.90;99.90;;;;;;5015385;28;20041;-75
2022/03/18 02:24:31;;;;;;;0.20;0.20;;;10.90;99.90;;;;;;5015884;28;20188;-75
2022/03/18 02:26:57;;;;;;;0.20;0.20;;;11.00;99.90;;;;;;5015048;28;20070;-75
2022/03/18 02:29:24;;;;;;;3.17;0.90;;;11.00;99.90;;;;;;5015038;28;20492;-75
2022/03/18 02:31:50;;;;;;;1.83;1.73;;;11.10;99.90;;;;;;5014800;28;20045;-76
2022/03/18 02:34:16;;;;;;;2.50;0.68;;;11.10;99.90;;;;;;5014920;28;20120;-75
2022/03/18 02:36:42;;;;;;;0.50;0.50;;;11.10;99.90;;;;;;5015233;28;20481;-75
2022/03/18 02:39:08;;;;;;;0.40;0.40;;;11.10;99.90;;;;;;5015312;28;20042;-75
2022/03/18 02:41:34;;;;;;;1.20;1.10;;;11.10;99.90;;;;;;5014662;28;20095;-76
2022/03/18 02:44:00;;;;;;;0.98;0.75;;;11.10;99.90;;;;;;5015097;28;20133;-75
2022/03/18 02:46:26;;;;;;;0.32;0.32;;;11.00;99.90;;;;;;5015080;28;20049;-75
2022/03/18 02:48:52;;;;;;;1.42;1.23;;;11.00;99.90;;;;;;5014837;28;20037;-75
2022/03/18 02:51:18;;;;;;;1.30;1.20;;;11.00;99.90;;;;;;5015263;28;20038;-75
2022/03/18 02:53:44;;;;;;;0.95;0.82;;;11.00;99.90;;;;;;5014894;28;20428;-75
2022/03/18 02:56:10;;;;;;;0.88;0.88;;;11.00;99.90;;;;;;5014727;28;20034;-75
2022/03/18 02:58:36;;;;;;;0.70;0.70;;;11.00;99.90;;;;;;5015586;28;20046;-75
2022/03/18 03:01:03;;;;;;;0.68;0.68;;;11.00;99.90;;;;;;5014735;28;20061;-75
2022/03/18 03:03:29;;;;;;;0.55;0.55;;;11.00;99.90;;;;;;5014687;28;20038;-75
2022/03/18 03:08:41;;;;;;;0.75;0.55;;;11.00;99.90;;;;;;5014277;28;20447;-75
2022/03/18 03:11:07;;;;;;;1.98;0.85;;;11.00;99.90;;;;;;5014543;28;20041;-75
2022/03/18 03:13:33;;;;;;;1.30;1.20;;;11.00;99.90;;;;;;5014297;28;20069;-75
2022/03/18 03:16:00;;;;;;;1.20;1.15;;;10.90;99.90;;;;;;5014158;28;20488;-75
2022/03/18 03:18:28;;;;;;;4.20;1.60;;;10.90;99.90;;;;;;5014156;28;20037;-75
2022/03/18 03:20:54;;;;;;;0.70;0.70;;;10.90;99.90;;;;;;5014753;28;20125;-75
2022/03/18 03:23:23;;;;;;;0.90;0.90;;;10.90;99.90;;;;;;5014490;28;20140;-75
2022/03/18 03:25:50;;;;;;;0.80;0.55;;;10.80;99.90;;;;;;5014359;28;20132;-75
2022/03/18 03:28:17;;;;;;;1.58;1.23;;;10.80;99.90;;;;;;5014833;28;20041;-75
2022/03/18 03:30:44;;;;;;;0.17;0.17;;;10.80;99.90;;;;;;5014421;28;20049;-74
2022/03/18 03:33:10;;;;;;;1.60;1.00;;;10.80;99.90;;;;;;5014640;28;20033;-75
2022/03/18 03:35:36;;;;;;;1.20;0.85;;;10.90;99.90;;;;;;5014433;28;20057;-75
2022/03/18 03:38:03;;;;;;;0.63;0.63;;;10.80;99.90;;;;;;5014373;28;20037;-75
2022/03/18 03:40:29;;;;;;;0.85;0.85;;;10.80;99.90;;;;;;5014305;28;20095;-75
2022/03/18 03:42:55;;;;;;;0.22;0.22;;;10.80;99.90;;;;;;5014027;28;20045;-75
2022/03/18 03:45:21;;;;;;;0.65;0.65;;;10.80;99.90;;;;;;5014105;28;20080;-75
2022/03/18 03:47:47;;;;;;;0.20;0.20;;;10.70;99.90;;;;;;5013965;28;20064;-75
2022/03/18 03:50:13;;;;;;;0.13;0.13;;;10.70;99.90;;;;;;5014239;28;20069;-75
2022/03/18 03:52:40;;;;;;;0.50;0.50;;;10.70;99.90;;;;;;5014103;28;20034;-75
2022/03/18 03:55:08;;;;;;;1.90;1.00;;;10.70;99.90;;;;;;5017420;28;20046;-75
2022/03/18 03:57:34;;;;;;;0.50;0.50;;;10.70;99.90;;;;;;5017801;28;20052;-75
2022/03/18 04:00:00;;;;;;;0.75;0.30;;;10.70;99.90;;;;;;5017750;28;20042;-75
2022/03/18 04:02:29;;;;;;;0.55;0.55;;;10.70;99.90;;;;;;5017711;28;20132;-75
2022/03/18 04:04:57;;;;;;;0.20;0.20;;;10.60;99.90;;;;;;5017670;28;20046;-75
2022/03/18 04:07:25;;;;;;;0.38;0.38;;;10.70;99.90;;;;;;5017931;28;20046;-75
2022/03/18 04:09:53;;;;;;;0.32;0.32;;;10.60;99.90;;;;;;5017856;28;20515;-75
2022/03/18 04:12:21;;;;;;;0.57;0.45;;;10.60;99.90;;;;;;5018456;28;20465;-75
2022/03/18 04:14:47;;;;;;;0.10;0.10;;;10.60;99.90;;;;;;5017502;28;20559;-75
2022/03/18 04:17:13;;;;;;;0.85;0.40;;;10.60;99.90;;;;;;5017343;28;20037;-75
2022/03/18 04:19:39;;;;;;;0.20;0.20;;;10.60;99.90;;;;;;5017655;28;20042;-75
2022/03/18 04:22:06;;;;;;;0.20;0.20;;;10.50;99.90;;;;;;5018181;28;20107;-75
2022/03/18 04:24:31;;;;;;;0.10;0.10;;;10.50;99.90;;;;;;5017590;28;20045;-75
2022/03/18 04:26:58;;;;;;;0.40;0.40;;;10.50;99.90;;;;;;5017248;28;20079;-75
2022/03/18 04:29:24;;;;;;;0.35;0.35;;;10.50;99.90;;;;;;5017666;28;20046;-75
2022/03/18 04:31:51;;;;;;;0.20;0.20;;;10.50;99.90;;;;;;5017088;28;20084;-75
2022/03/18 04:34:17;;;;;;;0.40;0.40;;;10.40;99.90;;;;;;5017114;28;20050;-75
2022/03/18 04:36:43;;;;;;;0.50;0.50;;;10.40;99.90;;;;;;5017133;28;20084;-75
2022/03/18 04:39:08;;;;;;;0.52;0.52;;;10.40;99.90;;;;;;5017495;28;20037;-75
2022/03/18 04:41:34;;;;;;;0.17;0.17;;;10.40;99.90;;;;;;5017390;28;20033;-75
2022/03/18 04:44:03;;;;;;;0.10;0.10;;;10.30;99.90;;;;;;5017854;28;20068;-75
2022/03/18 04:46:31;;;;;;;0.30;0.30;;;10.30;99.90;;;;;;5017053;28;20048;-75
2022/03/18 04:49:00;;;;;;;0.57;0.57;;;10.40;99.90;;;;;;5016842;28;20045;-75
2022/03/18 04:51:26;;;;;;;0.20;0.20;;;10.40;99.90;;;;;;5016939;28;20041;-75
2022/03/18 04:53:52;;;;;;;0.80;0.25;;;10.40;99.90;;;;;;5016727;28;20093;-75
2022/03/18 04:59:03;;;;;;;0.20;0.20;;;10.30;99.90;;;;;;5016749;28;20041;-75
2022/03/18 05:01:29;;;;;;;0.70;0.70;;;10.30;99.90;;;;;;5016805;28;20050;-75
2022/03/18 05:03:55;;;;;;;0.10;0.10;;;10.30;99.90;;;;;;5016623;28;20096;-75
2022/03/18 05:06:21;;;;;;;0.75;0.50;;;10.30;99.90;;;;;;5015530;28;20061;-75
2022/03/18 05:08:47;;;;;;;0.22;0.22;;;10.30;99.90;;;;;;5015824;28;20045;-75
2022/03/18 05:11:13;;;;;;;0.10;0.10;;;10.30;99.90;;;;;;5016327;28;20045;-75
2022/03/18 05:13:39;;;;;;;0.25;0.25;;;10.30;99.90;;;;;;5016076;28;20112;-75
2022/03/18 05:16:06;;;;;;;0.25;0.25;;;10.20;99.90;;;;;;5015780;28;20509;-76
2022/03/18 05:18:32;;;;;;;0.68;0.68;;;10.30;99.90;;;;;;5016273;28;20038;-75
2022/03/18 05:20:58;;;;;;;0.52;0.52;;;10.30;99.90;;;;;;5015967;28;20049;-75
2022/03/18 05:23:24;;;;;;;0.98;0.30;;;10.20;99.90;;;;;;5016338;28;20041;-75
2022/03/18 05:25:50;;;;;;;0.47;0.47;;;10.20;99.90;;;;;;5016118;28;20046;-76
2022/03/18 05:28:17;;;;;;;0.52;0.52;;;10.20;99.90;;;;;;5016049;28;20096;-76
2022/03/18 05:30:44;;;;;;;0.32;0.32;;;10.20;99.90;;;;;;5016083;28;20073;-76
2022/03/18 05:33:10;;;;;;;0.32;0.32;;;10.20;99.90;;;;;;5016201;28;20034;-73
2022/03/18 05:35:35;;;;;;;1.02;0.75;;;10.20;99.90;;;;;;5015709;28;20421;-75
2022/03/18 05:38:01;;;;;;;0.38;0.38;;;10.20;99.90;;;;;;5015434;28;20049;-77
2022/03/18 05:40:27;;;;;;;0.20;0.20;;;10.20;99.90;;;;;;5015256;28;20069;-76
2022/03/18 05:42:53;;;;;;;0.50;0.50;;;10.10;99.90;;;;;;5015436;28;20076;-76
2022/03/18 05:45:19;;;;;;;0.75;0.63;;;10.10;99.90;;;;;;5015647;28;20049;-76
2022/03/18 05:47:45;;;;;;;0.75;0.57;;;10.20;99.90;;;;;;5015492;28;20038;-76
2022/03/18 05:50:15;;;;;;;0.43;0.43;;;10.20;99.90;;;;;;5015617;28;20045;-76
2022/03/18 05:52:45;;;;;;;0.10;0.10;;;10.10;99.90;;;;;;5015513;28;20038;-76
2022/03/18 05:55:11;;;;;;;0.20;0.20;;;10.10;99.90;;;;;;5016066;28;20099;-76
2022/03/18 05:57:38;;;;;;;0.55;0.55;;;10.20;99.90;;;;;;5015593;28;20073;-76
2022/03/18 06:00:05;;;;;;;0.17;0.17;;;10.10;99.90;;;;;;5015961;28;20053;-76
2022/03/18 06:02:31;;;;;;;0.25;0.25;;;10.20;99.90;;;;;;5016921;28;20172;-76
2022/03/18 06:04:57;;;;;;;0.30;0.30;;;10.20;99.90;;;;;;5015784;28;20100;-76
2022/03/18 06:07:23;;;;;;;0.30;0.30;;;10.10;99.90;;;;;;5015773;28;20042;-76
2022/03/18 06:12:33;;;;;;;0.10;0.10;;;10.10;99.90;;;;;;5015420;28;20045;-76
2022/03/18 06:14:59;;;;;;;0.30;0.30;;;10.10;99.90;;;;;;5015726;28;20050;-76
2022/03/18 06:17:25;;;;;;;0.10;0.10;;;10.20;99.90;;;;;;5014499;28;20069;-76
2022/03/18 06:19:51;;;;;;;0.20;0.20;;;10.20;99.90;;;;;;5015529;28;20046;-76
2022/03/18 06:22:16;;;;;;;0.32;0.32;;;10.10;99.90;;;;;;5015568;28;20046;-76
2022/03/18 06:24:42;;;;;;;0.32;0.32;;;10.20;99.90;;;;;;5015183;28;20037;-76
2022/03/18 06:27:08;;;;;;;0.15;0.15;;;10.20;99.90;;;;;;5015723;28;20376;-76
2022/03/18 06:29:35;;;;;;;0.10;0.10;;;10.20;99.90;;;;;;5015932;28;20064;-76
2022/03/18 06:32:01;;;;;;;0.10;0.10;;;10.10;99.90;;;;;;5015493;28;20038;-76
2022/03/18 06:34:27;;;;;;;0.43;0.43;;;10.10;99.90;;;;;;5014971;28;20046;-76
2022/03/18 06:36:57;;;;;;;0.32;0.17;;;10.10;99.90;;;;;;5015586;28;20045;-76
2022/03/18 06:39:24;;;;;;;0.13;0.13;;;10.10;99.90;;;;;;5015073;28;20125;-76
2022/03/18 06:41:51;;;;;;;0.10;0.10;;;10.00;99.90;;;;;;5015301;28;20117;-76
2022/03/18 06:44:17;;;;;;;0.25;0.25;;;10.00;99.90;;;;;;5015148;28;20033;-76
2022/03/18 06:46:43;;;;;;;0.20;0.20;;;10.10;99.90;;;;;;5014320;28;20038;-76
2022/03/18 06:49:09;;;;;;;0.15;0.15;;;10.10;99.90;;;;;;5015240;28;20045;-76
2022/03/18 06:51:35;;;;;;;0.20;0.20;;;10.10;99.90;;;;;;5014927;28;20048;-76
2022/03/18 06:54:01;;;;;;;0.10;0.10;;;10.20;99.90;;;;;;5014763;28;20042;-76
2022/03/18 06:56:27;;;;;;;0.13;0.13;;;10.20;99.90;;;;;;5014826;28;20065;-76
2022/03/18 06:58:53;;;;;;;0.20;0.20;;;10.20;99.90;;;;;;5015214;28;20052;-76
2022/03/18 07:01:22;;;;;;;0.30;0.30;;;10.10;99.90;;;;;;5014278;28;20050;-76
2022/03/18 07:03:48;;;;;;;0.22;0.22;;;10.20;99.90;;;;;;5014674;28;20149;-76
2022/03/18 07:06:14;;;;;;;2.92;0.22;;;10.20;99.90;;;;;;5014454;28;20038;-76
2022/03/18 07:08:40;;;;;;;0.20;0.20;;;10.20;99.90;;;;;;5014391;28;20034;-76
2022/03/18 07:11:07;;;;;;;0.30;0.30;;;10.20;99.90;;;;;;5013475;28;20104;-77
2022/03/18 07:13:33;;;;;;;0.30;0.30;;;10.10;99.90;;;;;;5006139;28;20034;-78
2022/03/18 07:17:55;;;;;;;0.00;0.00;;;10.10;99.90;;;;;;5014221;28;20136;-77
2022/03/18 07:18:45;;;;;;;0.25;0.25;;;10.10;99.90;;;;;;4994526;28;20113;-78
2022/03/18 07:21:11;;;;;;;0.10;0.10;;;10.20;99.90;;;;;;5001634;28;20100;-78
2022/03/18 07:23:38;;;;;;;0.20;0.20;;;10.20;99.90;;;;;;5005089;28;20034;-76
2022/03/18 07:26:03;;;;;;;0.20;0.20;;;10.10;99.90;;;;;;5012611;28;20125;-77
2022/03/18 07:28:29;;;;;;;0.20;0.20;;;10.20;99.90;;;;;;5014567;28;20117;-76
2022/03/18 07:30:55;;;;;;;0.25;0.25;;;10.20;99.90;;;;;;4985068;28;20034;-76
2022/03/18 07:33:21;;;;;;;0.35;0.32;;;10.30;99.90;;;;;;5013457;28;20041;-77
2022/03/18 07:35:47;;;;;;;0.20;0.20;;;10.40;99.90;;;;;;5016977;28;20054;-77
2022/03/18 07:38:13;;;;;;;0.30;0.30;;;10.30;99.90;;;;;;5008133;28;20046;-76
2022/03/18 07:40:40;;;;;;;0.20;0.20;;;10.30;99.90;;;;;;5012716;28;20037;-75
2022/03/18 07:43:08;;;;;;;0.10;0.10;;;10.30;99.90;;;;;;5014821;28;20038;-76
2022/03/18 07:45:36;;;;;;;0.10;0.10;;;10.20;99.90;;;;;;5000865;28;20509;-76
2022/03/18 07:48:05;;;;;;;0.10;0.10;;;10.20;99.90;;;;;;5017066;28;20092;-76
2022/03/18 07:50:33;;;;;;;0.30;0.30;;;10.20;99.90;;;;;;5017631;28;20046;-75
2022/03/18 07:53:02;;;;;;;0.43;0.43;;;10.20;99.90;;;;;;5008825;28;20037;-76
2022/03/18 07:55:29;;;;;;;2.67;0.95;;;10.20;99.90;;;;;;5006578;28;20086;-76
2022/03/18 07:57:57;;;;;;;0.75;0.75;;;10.20;99.90;;;;;;5002935;28;20038;-75
2022/03/18 08:00:23;;;;;;;0.40;0.40;;;10.10;99.90;;;;;;4997626;28;20077;-76
2022/03/18 08:02:51;;;;;;;0.20;0.20;;;10.10;99.90;;;;;;5003652;28;20121;-76
2022/03/18 08:05:17;;;;;;;0.47;0.47;;;10.20;99.90;;;;;;5012538;28;20053;-76
2022/03/18 08:07:44;;;;;;;0.52;0.52;;;10.20;99.90;;;;;;5013760;28;20034;-76
2022/03/18 08:10:11;;;;;;;0.38;0.38;;;10.10;99.90;;;;;;5001209;28;20034;-77
2022/03/18 08:12:39;;;;;;;0.15;0.15;;;10.20;99.90;;;;;;5006385;28;20038;-77
2022/03/18 08:15:08;;;;;;;0.65;0.25;;;10.20;99.90;;;;;;5001909;28;20042;-76
2022/03/18 08:17:34;;;;;;;0.30;0.30;;;10.20;99.90;;;;;;5015389;28;20049;-77
2022/03/18 08:20:00;;;;;;;0.45;0.40;;;10.20;99.90;;;;;;5011917;28;20038;-77
2022/03/18 08:22:27;;;;;;;0.52;0.52;;;10.20;99.90;;;;;;4993194;28;20049;-77
2022/03/18 08:24:53;;;;;;;3.20;0.40;;;10.20;96.80;;;;;;5012103;28;20163;-77
2022/03/18 08:27:19;;;;;;;0.35;0.35;;;10.30;99.90;;;;;;5017535;28;20041;-78
2022/03/18 08:29:48;;;;;;;0.40;0.40;;;10.20;99.00;;;;;;5015164;28;20037;-76
2022/03/18 08:32:16;;;;;;;1.27;0.88;;;10.30;99.20;;;;;;5000279;28;20065;-76
2022/03/18 08:34:42;;;;;;;0.68;0.68;;;10.30;96.80;;;;;;5006749;28;20057;-72
2022/03/18 08:37:10;;;;;;;1.10;0.80;;;10.30;92.50;;;;;;5008306;28;20061;-75
2022/03/18 08:39:43;;;;;;;0.30;0.30;;;10.30;80.20;;;;;;4997091;28;20041;-77
2022/03/18 08:42:09;;;;;;;0.68;0.68;;;10.30;69.20;;;;;;5017406;28;20038;-75
2022/03/18 08:44:35;;;;;;;0.52;0.52;;;10.10;81.00;;;;;;5016920;28;20123;-76
2022/03/18 08:47:00;;;;;;;1.30;1.08;;;10.20;75.10;;;;;;5017101;28;20038;-75
2022/03/18 08:49:26;;;;;;;0.25;0.25;;;10.20;75.00;;;;;;5012356;28;20485;-75
2022/03/18 08:51:52;;;;;;;0.50;0.50;;;10.20;87.00;;;;;;5015252;28;20096;-75
2022/03/18 08:54:21;;;;;;;0.35;0.35;;;10.30;70.70;;;;;;4990370;28;20050;-75
2022/03/18 08:56:48;;;;;;;0.30;0.30;;;10.30;74.30;;;;;;5002955;28;20489;-75
2022/03/18 08:59:14;;;;;;;0.60;0.60;;;10.30;73.10;;;;;;5008859;28;20153;-74
2022/03/18 09:01:40;;;;;;;0.57;0.50;;;10.20;62.00;;;;;;5015409;28;20046;-73
2022/03/18 09:04:06;;;;;;;0.88;0.55;;;10.30;63.60;;;;;;5014306;28;20088;-77
2022/03/18 09:06:32;;;;;;;1.20;1.08;;;10.40;53.90;;;;;;5015987;28;20120;-75
2022/03/18 09:09:02;;;;;;;0.50;0.50;;;10.30;50.10;;;;;;5014031;28;20033;-77
2022/03/18 09:11:29;;;;;;;1.65;1.27;;;10.30;52.60;;;;;;5012727;28;20087;-77
2022/03/18 09:13:54;;;;;;;0.55;0.55;;;10.30;60.50;;;;;;5014124;28;20060;-77
2022/03/18 09:16:20;;;;;;;0.60;0.47;;;10.40;62.30;;;;;;5013123;28;20042;-77
2022/03/18 09:18:46;;;;;;;0.40;0.40;;;10.30;53.50;;;;;;5010435;28;20058;-77
2022/03/18 09:21:13;;;;;;;0.28;0.28;;;10.30;55.40;;;;;;5014524;28;20045;-77
2022/03/18 09:23:41;;;;;;;0.55;0.55;;;10.30;52.20;;;;;;5012840;28;20042;-77
2022/03/18 09:26:07;;;;;;;2.83;1.27;;;10.20;72.30;;;;;;5015515;28;20096;-77
2022/03/18 09:28:35;;;;;;;0.28;0.28;;;10.20;64.90;;;;;;5015060;28;20053;-77
2022/03/18 09:31:00;;;;;;;0.40;0.40;;;10.20;55.50;;;;;;5002044;28;20093;-77
2022/03/18 09:33:26;;;;;;;0.90;0.82;;;10.40;56.70;;;;;;5000644;28;20749;-77
2022/03/18 09:35:52;;;;;;;0.20;0.20;;;10.40;59.40;;;;;;5014785;28;20149;-81
2022/03/18 09:38:18;;;;;;;0.63;0.63;;;10.50;33.00;;;;;;5009796;28;20052;-76
2022/03/18 09:40:44;;;;;;;0.50;0.50;;;10.70;28.40;;;;;;5002572;28;20070;-76
2022/03/18 09:43:10;;;;;;;0.55;0.55;;;10.80;28.20;;;;;;5015104;28;20038;-76
2022/03/18 09:45:38;;;;;;;0.30;0.30;;;11.10;26.50;;;;;;5011494;28;20041;-77
2022/03/18 09:48:09;;;;;;;0.45;0.45;;;11.10;23.10;;;;;;5012797;28;20046;-76
2022/03/18 09:50:37;;;;;;;0.30;0.30;;;11.10;18.70;;;;;;5014312;28;20129;-75
2022/03/18 09:53:04;;;;;;;0.50;0.50;;;11.20;14.00;;;;;;5030601;28;20045;-76
2022/03/18 09:55:30;;;;;;;0.52;0.52;;;11.20;15.80;;;;;;5017589;28;20041;-76
2022/03/18 09:57:57;;;;;;;1.55;1.48;;;11.30;20.80;;;;;;5015179;28;20057;-76
2022/03/18 10:00:23;;;;;;;0.43;0.43;;;11.40;11.20;;;;;;5021854;28;20128;-76
2022/03/18 10:03:13;;;;;;;0.20;0.20;;;11.60;9.40;;;;;;5020929;28;20116;-76
2022/03/18 10:05:59;;;;;;;2.40;0.90;;;11.70;8.70;;;;;;5014045;28;20057;-76
2022/03/18 10:08:49;;;;;;;2.53;0.93;;;12.00;8.90;;;;;;5010543;28;20129;-77
2022/03/18 10:11:27;;;;;;;0.20;0.20;;;12.30;1.00;;;;;;5003342;28;20107;-76
2022/03/18 10:13:54;;;;;;;0.65;0.60;;;12.50;1.00;;;;;;5011013;28;20512;-77
2022/03/18 10:16:33;;;;;;;1.55;0.80;;;12.40;1.00;;;;;;5008561;28;20397;-77
2022/03/18 10:19:00;;;;;;;0.57;0.57;;;12.40;1.00;;;;;;5012739;28;20068;-76
2022/03/18 10:21:29;;;;;;;0.30;0.30;;;12.40;1.00;;;;;;5012945;28;20037;-76
2022/03/18 10:24:06;;;;;;;0.25;0.25;;;12.50;1.00;;;;;;5006716;28;20054;-77
2022/03/18 10:26:39;;;;;;;1.13;1.02;;;12.30;1.00;;;;;;4996729;28;20041;-76
2022/03/18 10:29:11;;;;;;;1.27;1.25;;;12.30;1.00;;;;;;5012362;28;20081;-76
2022/03/18 10:31:39;;;;;;;0.40;0.40;;;12.60;1.00;;;;;;5009571;28;20081;-76
2022/03/18 10:37:08;;;;;;;0.57;0.57;;;12.50;1.00;;;;;;5014497;28;20088;-76
2022/03/18 10:39:40;;;;;;;1.15;1.08;;;12.60;1.00;;;;;;5009518;28;20085;-77
2022/03/18 10:42:10;;;;;;;0.45;0.45;;;12.70;1.00;;;;;;5007510;28;20042;-76
2022/03/18 10:44:57;;;;;;;0.13;0.13;;;13.00;1.00;;;;;;5012887;28;20160;-76
2022/03/18 10:47:40;;;;;;;0.70;0.70;;;13.10;1.00;;;;;;5007204;28;20034;-76
2022/03/18 10:50:14;;;;;;;1.38;0.55;;;13.40;1.00;;;;;;5019458;28;20519;-76
2022/03/18 10:53:01;;;;;;;0.30;0.30;;;13.50;1.00;;;;;;5021059;28;20034;-76
2022/03/18 10:55:36;;;;;;;0.32;0.32;;;13.50;1.00;;;;;;5013624;28;20049;-77
2022/03/18 10:58:14;;;;;;;0.40;0.40;;;13.60;1.00;;;;;;5012321;28;20050;-76
2022/03/18 11:00:46;;;;;;;0.30;0.30;;;13.20;1.00;;;;;;5013748;28;20140;-76
2022/03/18 11:03:13;;;;;;;0.20;0.20;;;13.40;1.00;;;;;;5016572;28;20049;-76
2022/03/18 11:05:41;;;;;;;0.65;0.65;;;13.50;1.00;;;;;;5020687;28;20497;-76
2022/03/18 11:08:12;;;;;;;1.08;1.00;;;13.30;1.00;;;;;;5020490;28;20523;-76
2022/03/18 11:13:35;;;;;;;0.40;0.40;;;13.40;1.00;;;;;;5020610;28;20080;-76
2022/03/18 11:16:02;;;;;;;0.52;0.52;;;13.10;1.00;;;;;;5019944;28;20038;-76
2022/03/18 11:18:29;;;;;;;0.45;0.45;;;13.30;1.00;;;;;;5020275;28;20081;-76
2022/03/18 11:20:57;;;;;;;0.52;0.52;;;13.50;1.00;;;;;;4998359;28;20038;-76
2022/03/18 11:23:23;;;;;;;0.80;0.40;;;13.50;1.00;;;;;;5020408;28;20492;-76
2022/03/18 11:25:54;;;;;;;0.60;0.60;;;13.50;1.00;;;;;;5018203;28;20045;-76
2022/03/18 11:28:21;;;;;;;0.80;0.80;;;13.40;1.00;;;;;;5009122;28;20064;-76
2022/03/18 11:30:48;;;;;;;0.95;0.95;;;13.10;1.00;;;;;;5020592;28;20038;-76
2022/03/18 11:33:14;;;;;;;1.00;0.40;;;13.40;1.00;;;;;;5010380;28;20099;-76
2022/03/18 11:35:49;;;;;;;0.80;0.60;;;13.20;1.00;;;;;;5018571;28;20033;-76
2022/03/18 11:38:23;;;;;;;0.88;0.88;;;13.60;1.00;;;;;;5020472;28;20053;-76
2022/03/18 11:40:57;;;;;;;0.60;0.60;;;13.40;1.00;;;;;;5020402;28;20057;-75
2022/03/18 11:43:39;;;;;;;0.50;0.50;;;13.70;1.00;;;;;;5020565;28;20037;-75
2022/03/18 11:46:15;;;;;;;0.28;0.28;;;14.00;1.00;;;;;;5020911;28;20042;-75
2022/03/18 11:48:57;;;;;;;0.52;0.52;;;14.00;1.00;;;;;;5015703;28;20035;-76
2022/03/18 11:51:39;;;;;;;1.25;1.00;;;14.00;1.00;;;;;;5001197;28;20038;-76
2022/03/18 11:54:16;;;;;;;0.47;0.38;;;13.90;1.00;;;;;;5015299;28;20038;-76
2022/03/18 11:56:51;;;;;;;0.40;0.40;;;13.80;1.00;;;;;;5015889;28;20046;-75
2022/03/18 11:59:29;;;;;;;0.75;0.75;;;13.70;1.00;;;;;;5013672;28;20048;-76
2022/03/18 12:01:56;;;;;;;0.70;0.70;;;14.00;1.00;;;;;;5013853;28;20058;-76
2022/03/18 12:04:34;;;;;;;0.55;0.50;;;13.90;1.00;;;;;;5019974;28;20045;-76
2022/03/18 12:07:12;;;;;;;0.40;0.30;;;13.90;1.00;;;;;;5019081;28;20037;-76
2022/03/18 12:10:03;;;;;;;0.70;0.70;;;13.70;1.00;;;;;;5019280;28;20041;-76
2022/03/18 12:12:42;;;;;;;0.20;0.20;;;13.80;1.00;;;;;;5017659;28;20072;-75
2022/03/18 12:15:09;;;;;;;0.47;0.47;;;14.00;1.00;;;;;;4999102;28;20041;-76
2022/03/18 12:17:47;;;;;;;0.40;0.40;;;14.00;1.00;;;;;;5004568;28;20045;-76
2022/03/18 12:20:20;;;;;;;0.60;0.60;;;14.20;1.00;;;;;;5037853;28;20046;-76
2022/03/18 12:22:48;;;;;;;0.40;0.40;;;14.40;1.00;;;;;;5036749;28;20037;-75
2022/03/18 12:25:14;;;;;;;2.92;0.65;;;14.20;1.00;;;;;;5007184;28;20041;-76
2022/03/18 12:27:41;;;;;;;0.20;0.20;;;14.50;1.00;;;;;;5018088;28;20365;-76
2022/03/18 12:30:15;;;;;;;1.42;0.63;;;14.40;1.00;;;;;;5036887;28;20072;-76
2022/03/18 12:32:51;;;;;;;0.95;0.95;;;14.60;1.00;;;;;;5036835;28;20037;-76
2022/03/18 12:35:18;;;;;;;0.57;0.57;;;14.70;1.00;;;;;;5017082;28;20042;-76
2022/03/18 12:37:46;;;;;;;0.30;0.30;;;14.90;1.00;;;;;;5012745;28;20104;-76
2022/03/18 12:40:16;;;;;;;0.68;0.57;;;15.00;1.00;;;;;;5024470;28;20378;-76
2022/03/18 12:42:48;;;;;;;;;;;15.10;1.00;;;;;;5010574;28;20062;-76
2022/03/18 12:45:34;;;;;;;0.50;0.50;;;15.30;1.00;;;;;;5002396;28;19956;-76
2022/03/18 12:48:14;;;;;;;0.40;0.40;;;15.40;1.00;;;;;;5011177;28;20048;-77
2022/03/18 12:50:47;;;;;;;1.48;1.02;;;15.50;1.00;;;;;;5012672;28;20125;-76
2022/03/18 12:53:21;;;;;;;1.92;0.40;;;15.60;1.00;;;;;;5014725;28;20038;-77
2022/03/18 12:55:50;;;;;;;1.00;0.90;;;15.60;1.00;;;;;;5011618;28;20133;-76
2022/03/18 12:58:17;;;;;;;0.43;0.43;;;15.50;1.00;;;;;;5016364;28;20038;-76
2022/03/18 13:00:45;;;;;;;0.38;0.38;;;15.40;1.00;;;;;;5016149;28;20045;-76
2022/03/18 13:03:19;;;;;;;1.30;0.85;;;15.40;1.00;;;;;;5005905;28;20152;-75
2022/03/18 13:05:50;;;;;;;0.50;0.50;;;15.60;1.00;;;;;;5002702;28;20038;-77
2022/03/18 13:08:16;;;;;;;0.65;0.65;;;15.70;1.00;;;;;;5011855;28;20040;-76
2022/03/18 13:10:52;;;;;;;3.10;1.33;;;15.40;1.00;;;;;;5016318;28;20045;-77
2022/03/18 13:13:18;;;;;;;0.25;0.25;;;15.00;1.00;;;;;;5012071;28;20400;-76
2022/03/18 13:15:59;;;;;;;0.20;0.20;;;15.40;1.00;;;;;;5015538;28;20049;-77